Time;durP1;ratioP1;P1;durP2;ratioP2;P2;SDS_P1;SDS_P2;PMS_P1;PMS_P2;Temp;Humidity;BMP_temperature;BMP_pressure;BME280_temperature;BME280_humidity;BME280_pressure;Samples;Min_cycle;Max_cycle;Signal;HPM_P1;HPM_P2
2023/11/24 00:01:42;;;;;;;15.80;3.88;;;9.30;99.90;;;;;;6336194;22;20090;-83
2023/11/24 00:04:31;;;;;;;9.00;1.92;;;9.20;99.90;;;;;;6337812;22;20011;-83
2023/11/24 00:07:00;;;;;;;10.13;2.63;;;9.20;99.90;;;;;;6338373;22;19999;-83
2023/11/24 00:09:36;;;;;;;13.85;2.85;;;9.10;99.90;;;;;;6337898;22;20007;-84
2023/11/24 00:12:08;;;;;;;16.42;2.08;;;9.00;99.90;;;;;;6339611;22;20059;-83
2023/11/24 00:14:40;;;;;;;8.43;2.50;;;8.90;99.90;;;;;;6311242;22;20015;-83
2023/11/24 00:17:13;;;;;;;17.55;2.72;;;8.90;99.90;;;;;;6313261;22;20337;-83
2023/11/24 00:19:49;;;;;;;20.50;2.33;;;8.90;99.90;;;;;;6337383;22;20003;-83
2023/11/24 00:22:25;;;;;;;14.07;3.00;;;8.90;99.90;;;;;;6338387;22;20009;-84
2023/11/24 00:24:54;;;;;;;14.68;2.65;;;8.80;99.90;;;;;;6313201;22;20009;-83
2023/11/24 00:28:08;;;;;;;13.23;3.05;;;8.80;99.90;;;;;;6337697;22;20033;-83
2023/11/24 00:30:35;;;;;;;21.52;3.05;;;8.90;99.90;;;;;;6340408;22;20006;-83
2023/11/24 00:33:18;;;;;;;18.55;3.28;;;8.80;99.90;;;;;;6314281;22;20021;-83
2023/11/24 00:35:55;;;;;;;15.43;2.70;;;8.70;99.90;;;;;;6338412;22;20003;-83
2023/11/24 00:38:26;;;;;;;13.82;2.50;;;8.70;99.90;;;;;;6310071;22;20010;-83
2023/11/24 00:40:54;;;;;;;20.10;3.78;;;8.60;99.90;;;;;;6312415;22;20003;-83
2023/11/24 00:43:23;;;;;;;11.85;2.45;;;8.60;99.90;;;;;;6337764;22;20006;-83
2023/11/24 00:45:53;;;;;;;24.35;2.85;;;8.60;99.90;;;;;;6311731;22;20432;-83
2023/11/24 00:48:24;;;;;;;16.98;2.88;;;8.60;99.90;;;;;;6311099;22;20034;-83
2023/11/24 00:50:53;;;;;;;13.18;2.38;;;8.60;99.90;;;;;;6312013;22;20011;-83
2023/11/24 00:53:22;;;;;;;10.68;2.42;;;8.60;99.90;;;;;;6338920;22;20002;-83
2023/11/24 00:55:54;;;;;;;10.25;2.50;;;8.50;99.90;;;;;;6340824;22;20025;-82
2023/11/24 00:58:25;;;;;;;20.40;3.45;;;8.50;99.90;;;;;;6337874;22;20337;-83
2023/11/24 01:01:04;;;;;;;17.15;4.30;;;8.50;99.90;;;;;;6334733;22;20010;-83
2023/11/24 01:03:36;;;;;;;22.92;2.92;;;8.50;99.90;;;;;;6337808;22;20007;-83
2023/11/24 01:06:05;;;;;;;23.27;2.67;;;8.50;99.90;;;;;;6339388;22;20026;-83
2023/11/24 01:08:42;;;;;;;31.48;5.75;;;8.50;99.90;;;;;;6338583;22;20041;-83
2023/11/24 01:11:12;;;;;;;28.48;4.93;;;8.50;99.90;;;;;;6338658;22;20017;-83
2023/11/24 01:13:41;;;;;;;24.90;4.93;;;8.50;99.90;;;;;;6322435;22;20049;-82
2023/11/24 01:16:12;;;;;;;21.45;3.63;;;8.40;99.90;;;;;;6314498;22;20008;-83
2023/11/24 01:18:52;;;;;;;22.50;3.85;;;8.40;99.90;;;;;;6212561;22;20009;-84
2023/11/24 01:21:26;;;;;;;25.20;2.67;;;8.40;99.90;;;;;;6318408;22;20001;-83
2023/11/24 01:24:05;;;;;;;26.58;4.30;;;8.40;99.90;;;;;;6215429;22;20027;-83
2023/11/24 01:26:56;;;;;;;25.40;2.55;;;8.40;99.90;;;;;;6212991;22;20018;-84
2023/11/24 01:29:24;;;;;;;33.38;2.92;;;8.40;99.90;;;;;;6318263;22;20032;-83
2023/11/24 01:32:11;;;;;;;18.90;3.58;;;8.30;99.90;;;;;;6293232;22;20004;-84
2023/11/24 01:34:43;;;;;;;17.33;3.15;;;8.40;99.90;;;;;;6294482;22;20015;-84
2023/11/24 01:37:24;;;;;;;25.02;3.50;;;8.30;99.90;;;;;;6215546;22;20007;-84
2023/11/24 01:39:50;;;;;;;15.60;3.58;;;8.30;99.90;;;;;;6318840;22;20483;-84
2023/11/24 01:42:16;;;;;;;25.92;3.88;;;8.30;99.90;;;;;;6319789;22;20007;-83
2023/11/24 01:44:48;;;;;;;23.95;4.22;;;8.40;99.90;;;;;;6319773;22;20001;-84
2023/11/24 01:47:22;;;;;;;13.43;2.58;;;8.30;99.90;;;;;;6319051;22;20331;-84
2023/11/24 01:49:52;;;;;;;27.85;3.70;;;8.30;99.90;;;;;;6229394;22;20001;-84
2023/11/24 01:52:19;;;;;;;26.60;3.38;;;8.30;99.90;;;;;;6323824;22;20549;-84
2023/11/24 01:54:48;;;;;;;16.90;2.72;;;8.30;99.90;;;;;;6323565;22;20016;-84
2023/11/24 01:57:19;;;;;;;11.95;2.47;;;8.20;99.90;;;;;;6278218;22;20032;-83
2023/11/24 01:59:48;;;;;;;14.48;2.90;;;8.10;99.90;;;;;;6290907;22;20013;-83
2023/11/24 02:02:16;;;;;;;13.65;1.92;;;7.90;99.90;;;;;;6309372;22;20004;-84
2023/11/24 02:04:48;;;;;;;12.43;2.00;;;7.70;99.90;;;;;;6214570;22;20335;-84
2023/11/24 02:07:15;;;;;;;14.90;2.38;;;7.50;99.90;;;;;;6319462;22;20004;-83
2023/11/24 02:09:42;;;;;;;13.68;1.92;;;7.40;99.90;;;;;;6292321;22;20430;-85
2023/11/24 02:12:08;;;;;;;13.98;1.65;;;7.30;99.90;;;;;;6319323;22;20012;-83
2023/11/24 02:14:37;;;;;;;15.88;3.03;;;7.20;99.90;;;;;;6293984;22;20013;-84
2023/11/24 02:17:10;;;;;;;9.30;1.63;;;7.10;99.90;;;;;;6319036;22;20334;-84
2023/11/24 02:19:42;;;;;;;13.25;2.95;;;6.90;99.90;;;;;;6264899;22;20012;-83
2023/11/24 02:22:08;;;;;;;17.98;1.80;;;6.80;99.90;;;;;;6316508;22;20008;-82
2023/11/24 02:24:38;;;;;;;22.67;2.45;;;6.80;99.90;;;;;;6315353;22;20028;-83
2023/11/24 02:27:05;;;;;;;27.45;2.83;;;6.70;99.90;;;;;;6291652;22;20442;-83
2023/11/24 02:29:35;;;;;;;22.17;2.88;;;6.60;99.90;;;;;;6312507;22;20090;-85
2023/11/24 02:32:08;;;;;;;11.23;3.08;;;6.60;99.90;;;;;;6210264;22;20008;-83
2023/11/24 02:34:34;;;;;;;14.02;1.77;;;6.50;99.90;;;;;;6315249;22;20031;-83
2023/11/24 02:37:03;;;;;;;13.70;1.90;;;6.50;99.90;;;;;;6315218;22;20012;-83
2023/11/24 02:39:43;;;;;;;16.17;3.40;;;6.50;99.90;;;;;;6316033;22;20009;-83
2023/11/24 02:42:11;;;;;;;11.82;2.25;;;6.40;99.90;;;;;;6317100;22;20004;-83
2023/11/24 02:44:44;;;;;;;18.90;2.45;;;6.40;99.90;;;;;;6293721;22;20073;-83
2023/11/24 02:47:13;;;;;;;18.10;3.05;;;6.30;99.90;;;;;;6294324;22;20008;-83
2023/11/24 02:49:48;;;;;;;15.15;3.70;;;6.30;99.90;;;;;;6212949;22;20502;-84
2023/11/24 02:52:17;;;;;;;12.35;3.75;;;6.20;99.90;;;;;;6318534;22;20400;-83
2023/11/24 02:54:43;;;;;;;15.65;2.97;;;6.20;99.90;;;;;;6294595;22;20518;-83
2023/11/24 02:57:11;;;;;;;24.30;3.25;;;6.10;99.90;;;;;;6318787;22;20498;-83
2023/11/24 02:59:41;;;;;;;13.35;2.45;;;6.10;99.90;;;;;;6208161;22;20090;-83
2023/11/24 03:02:13;;;;;;;32.45;3.40;;;6.10;99.90;;;;;;6315596;22;20419;-83
2023/11/24 03:04:43;;;;;;;18.10;2.50;;;6.10;99.90;;;;;;6289147;22;20012;-83
2023/11/24 03:07:13;;;;;;;16.05;2.55;;;6.10;99.90;;;;;;6291030;22;20350;-83
2023/11/24 03:09:44;;;;;;;15.77;2.85;;;6.20;99.90;;;;;;6210849;23;20004;-82
2023/11/24 03:12:16;;;;;;;15.30;2.10;;;6.10;99.90;;;;;;6290957;22;20008;-84
2023/11/24 03:14:47;;;;;;;13.20;3.03;;;6.10;99.90;;;;;;6315354;22;20020;-84
2023/11/24 03:17:15;;;;;;;23.02;2.22;;;6.10;99.90;;;;;;6289555;22;20015;-84
2023/11/24 03:19:50;;;;;;;14.27;1.88;;;6.00;99.90;;;;;;6213823;22;20005;-84
2023/11/24 03:22:17;;;;;;;16.42;3.42;;;6.00;99.90;;;;;;6294593;22;20012;-83
2023/11/24 03:25:04;;;;;;;20.17;2.13;;;6.00;99.90;;;;;;6219049;22;20004;-84
2023/11/24 03:27:31;;;;;;;15.88;2.67;;;6.00;99.90;;;;;;6322877;22;20005;-84
2023/11/24 03:29:57;;;;;;;15.95;2.22;;;6.00;99.90;;;;;;6297106;22;20088;-83
2023/11/24 03:32:34;;;;;;;18.33;4.00;;;6.00;99.90;;;;;;6323018;22;20008;-84
2023/11/24 03:35:08;;;;;;;16.88;2.85;;;5.90;99.90;;;;;;6302570;22;20009;-84
2023/11/24 03:37:39;;;;;;;24.52;2.20;;;5.90;99.90;;;;;;6321730;22;20005;-84
2023/11/24 03:40:15;;;;;;;21.23;2.63;;;5.90;99.90;;;;;;6324788;22;20392;-84
2023/11/24 03:42:49;;;;;;;26.85;4.55;;;5.90;99.90;;;;;;6293713;22;20031;-83
2023/11/24 03:45:21;;;;;;;20.67;3.10;;;5.90;99.90;;;;;;6317899;22;20027;-83
2023/11/24 03:47:49;;;;;;;13.15;2.45;;;5.90;99.90;;;;;;6309372;22;20117;-83
2023/11/24 03:50:17;;;;;;;33.15;3.22;;;5.90;99.90;;;;;;6317423;22;20016;-84
2023/11/24 03:52:48;;;;;;;16.13;3.45;;;5.90;99.90;;;;;;6214546;22;20024;-84
2023/11/24 03:55:15;;;;;;;20.77;3.30;;;5.90;99.90;;;;;;6293745;22;20024;-83
2023/11/24 03:57:46;;;;;;;20.83;3.42;;;5.90;99.90;;;;;;6291475;22;20013;-83
2023/11/24 04:00:30;;;;;;;33.30;3.70;;;5.90;99.90;;;;;;6212763;22;20022;-84
2023/11/24 04:03:05;;;;;;;28.92;3.33;;;6.00;99.90;;;;;;6292912;22;20005;-83
2023/11/24 04:05:46;;;;;;;13.63;2.22;;;6.00;99.90;;;;;;6318615;22;20012;-84
2023/11/24 04:08:20;;;;;;;17.85;2.88;;;6.00;99.90;;;;;;6213345;22;20012;-83
2023/11/24 04:10:52;;;;;;;21.88;3.33;;;6.00;99.90;;;;;;6292094;22;20019;-83
2023/11/24 05:55:14;;;;;;;12.07;1.00;;;6.00;99.90;;;;;;6186328;23;20017;-86
2023/11/24 05:57:40;;;;;;;5.30;1.55;;;6.10;99.90;;;;;;6287967;22;20020;-86
2023/11/24 06:00:09;;;;;;;6.30;1.13;;;6.10;99.90;;;;;;6288054;22;20005;-87
2023/11/24 06:02:36;;;;;;;11.60;1.48;;;6.10;99.90;;;;;;6291028;22;20070;-86
2023/11/24 06:05:06;;;;;;;7.15;1.05;;;6.10;99.90;;;;;;6290398;22;20009;-85
2023/11/24 06:07:32;;;;;;;12.07;1.88;;;6.20;99.90;;;;;;6291745;22;20001;-87
2023/11/24 06:09:59;;;;;;;6.97;1.55;;;6.20;99.90;;;;;;6291478;22;20002;-87
2023/11/24 06:12:25;;;;;;;9.25;2.03;;;6.20;99.90;;;;;;6290709;22;20710;-87
2023/11/24 06:14:51;;;;;;;8.32;1.15;;;6.20;99.90;;;;;;6292901;22;20426;-87
2023/11/24 06:17:18;;;;;;;4.13;0.93;;;6.10;99.90;;;;;;6292552;22;20005;-87
2023/11/24 06:19:44;;;;;;;6.65;1.00;;;6.00;99.90;;;;;;6293497;22;20016;-86
2023/11/24 06:22:10;;;;;;;7.68;1.35;;;6.00;99.90;;;;;;6288661;22;20010;-86
2023/11/24 06:24:36;;;;;;;10.25;1.83;;;5.90;99.90;;;;;;6290207;22;20001;-87
2023/11/24 06:27:02;;;;;;;11.10;2.80;;;5.90;99.90;;;;;;6290480;22;20001;-87
2023/11/24 06:29:28;;;;;;;8.60;1.33;;;5.90;99.90;;;;;;6291557;22;20034;-86
2023/11/24 06:31:53;;;;;;;5.22;1.20;;;5.90;99.90;;;;;;6293149;22;20536;-86
2023/11/24 06:34:20;;;;;;;18.73;4.70;;;5.80;99.90;;;;;;6289919;22;20043;-86
2023/11/24 06:36:46;;;;;;;5.15;1.70;;;5.80;99.90;;;;;;6290264;22;20509;-86
2023/11/24 06:39:13;;;;;;;8.07;1.60;;;5.80;99.90;;;;;;6290005;22;20005;-86
2023/11/24 06:41:39;;;;;;;17.23;2.15;;;5.80;99.90;;;;;;6289422;22;20431;-87
2023/11/24 06:44:05;;;;;;;6.60;1.30;;;5.80;99.90;;;;;;6289604;22;20020;-88
2023/11/24 06:46:32;;;;;;;12.88;1.33;;;5.80;99.90;;;;;;6290861;22;20005;-89
2023/11/24 06:48:57;;;;;;;7.13;1.48;;;5.80;99.90;;;;;;6291283;22;20037;-89
2023/11/24 06:51:24;;;;;;;6.28;1.73;;;5.80;99.90;;;;;;6291384;22;20017;-89
2023/11/24 06:53:50;;;;;;;12.07;1.73;;;5.80;99.90;;;;;;6291870;22;20062;-88
2023/11/24 06:56:16;;;;;;;9.05;1.98;;;5.80;99.90;;;;;;6291607;22;20012;-89
2023/11/24 06:58:43;;;;;;;12.73;1.38;;;5.80;99.90;;;;;;6291083;22;20466;-89
2023/11/24 07:01:09;;;;;;;12.27;2.42;;;5.80;99.90;;;;;;6290961;22;20001;-88
2023/11/24 07:03:35;;;;;;;9.95;1.55;;;5.80;99.90;;;;;;6291126;22;20122;-89
2023/11/24 07:06:04;;;;;;;15.10;2.47;;;5.80;99.90;;;;;;6291469;22;20001;-89
2023/11/24 07:08:30;;;;;;;10.15;1.70;;;5.80;99.90;;;;;;6291019;22;20005;-88
2023/11/24 07:10:56;;;;;;;12.30;1.70;;;5.80;99.90;;;;;;6291711;22;20008;-89
2023/11/24 07:13:22;;;;;;;5.30;1.17;;;5.90;99.90;;;;;;6292377;22;20012;-89
2023/11/24 07:15:48;;;;;;;14.38;2.42;;;5.90;99.90;;;;;;6299497;22;19993;-89
2023/11/24 07:18:14;;;;;;;11.18;1.73;;;6.00;99.90;;;;;;6313751;22;20008;-89
2023/11/24 07:20:40;;;;;;;8.98;1.75;;;6.00;99.90;;;;;;6301863;22;20012;-88
2023/11/24 07:23:06;;;;;;;22.58;3.13;;;6.00;99.90;;;;;;6292964;22;20029;-88
2023/11/24 07:25:32;;;;;;;10.57;1.92;;;6.00;99.90;;;;;;6291114;22;20098;-89
2023/11/24 07:27:57;;;;;;;15.55;1.33;;;6.00;99.90;;;;;;6291376;22;20092;-89
2023/11/24 07:30:25;;;;;;;7.75;1.20;;;6.00;99.90;;;;;;6291336;22;20005;-89
2023/11/24 07:32:51;;;;;;;5.47;1.30;;;5.90;99.90;;;;;;6291109;22;20012;-88
2023/11/24 07:35:18;;;;;;;6.13;1.13;;;5.70;99.90;;;;;;6290741;22;20016;-89
2023/11/24 07:37:44;;;;;;;7.38;0.80;;;5.70;99.90;;;;;;6290103;22;20037;-88
2023/11/24 07:40:13;;;;;;;8.20;1.60;;;5.60;99.90;;;;;;6291181;22;20012;-89
2023/11/24 07:42:41;;;;;;;5.43;0.90;;;5.50;99.90;;;;;;6290750;22;20423;-89
2023/11/24 07:45:10;;;;;;;5.05;0.82;;;5.40;99.90;;;;;;6291106;22;20005;-88
2023/11/24 07:47:36;;;;;;;6.15;1.25;;;5.30;99.90;;;;;;6291401;22;20056;-89
2023/11/24 07:50:04;;;;;;;7.30;1.63;;;5.30;99.90;;;;;;6291603;22;20028;-89
2023/11/24 07:52:30;;;;;;;8.88;1.00;;;5.30;99.90;;;;;;6290809;22;20017;-88
2023/11/24 07:54:56;;;;;;;5.30;1.10;;;5.40;99.90;;;;;;6291239;22;20005;-88
2023/11/24 07:57:24;;;;;;;3.53;0.88;;;5.40;99.90;;;;;;6293866;22;20005;-88
2023/11/24 07:59:51;;;;;;;8.35;1.05;;;5.40;99.90;;;;;;6291384;22;20005;-88
2023/11/24 08:02:17;;;;;;;5.00;1.30;;;5.40;99.90;;;;;;6291192;22;20001;-88
2023/11/24 08:04:42;;;;;;;9.18;1.63;;;5.50;99.90;;;;;;6291641;22;20035;-88
2023/11/24 08:07:09;;;;;;;6.53;0.80;;;5.50;99.90;;;;;;6291297;22;20089;-88
2023/11/24 08:09:35;;;;;;;4.32;0.65;;;5.40;99.90;;;;;;6290827;22;20009;-88
2023/11/24 08:12:01;;;;;;;3.17;0.65;;;5.50;99.90;;;;;;6290784;22;20047;-88
2023/11/24 08:14:26;;;;;;;7.10;1.13;;;5.50;99.90;;;;;;6292282;22;20036;-88
2023/11/24 08:16:52;;;;;;;5.25;0.77;;;5.50;99.90;;;;;;6290209;22;20455;-88
2023/11/24 08:19:22;;;;;;;4.55;0.88;;;5.50;99.90;;;;;;6291009;22;20102;-88
2023/11/24 08:21:48;;;;;;;4.22;0.57;;;5.30;99.90;;;;;;6290473;22;20001;-88
2023/11/24 08:24:14;;;;;;;9.10;1.67;;;5.20;99.90;;;;;;6290942;22;20065;-87
2023/11/24 08:26:41;;;;;;;4.85;1.50;;;5.20;99.90;;;;;;6290470;22;20001;-88
2023/11/24 08:29:07;;;;;;;2.25;1.20;;;5.30;99.90;;;;;;6292613;22;20005;-88
2023/11/24 08:31:33;;;;;;;3.70;1.55;;;5.20;99.90;;;;;;6294964;22;20036;-87
2023/11/24 08:33:59;;;;;;;4.20;1.00;;;5.20;99.90;;;;;;6291754;22;20012;-87
2023/11/24 08:36:25;;;;;;;4.70;1.20;;;5.20;99.90;;;;;;6291240;22;20013;-87
2023/11/24 08:38:51;;;;;;;3.80;1.52;;;5.30;99.90;;;;;;6291050;22;20009;-88
2023/11/24 08:41:18;;;;;;;5.53;1.50;;;5.30;99.90;;;;;;6291139;22;20001;-88
2023/11/24 08:43:47;;;;;;;4.55;1.45;;;5.40;99.90;;;;;;6290846;22;20016;-87
2023/11/24 08:46:13;;;;;;;4.70;1.10;;;5.40;99.90;;;;;;6290901;22;20450;-88
2023/11/24 08:48:40;;;;;;;5.95;1.42;;;5.40;99.90;;;;;;6290453;22;20005;-87
2023/11/24 08:51:09;;;;;;;3.75;1.52;;;5.50;99.90;;;;;;6290773;22;20001;-88
2023/11/24 08:53:35;;;;;;;4.63;1.38;;;5.40;99.90;;;;;;6290850;22;20021;-88
2023/11/24 08:56:03;;;;;;;3.95;1.60;;;5.50;99.90;;;;;;6291885;22;20016;-88
2023/11/24 08:58:30;;;;;;;8.18;1.83;;;5.60;99.90;;;;;;6291143;22;20465;-88
2023/11/24 09:00:56;;;;;;;2.75;1.35;;;5.70;99.90;;;;;;6291320;22;20002;-87
2023/11/24 09:03:24;;;;;;;9.10;1.73;;;5.70;99.90;;;;;;6290898;22;20001;-88
2023/11/24 09:05:57;;;;;;;8.15;1.60;;;5.80;99.90;;;;;;6290646;22;20001;-88
2023/11/24 09:08:23;;;;;;;6.78;1.40;;;6.00;99.90;;;;;;6296394;22;20010;-88
2023/11/24 09:10:49;;;;;;;6.45;1.23;;;6.10;99.90;;;;;;6310825;22;19993;-89
2023/11/24 09:13:15;;;;;;;4.50;0.88;;;6.20;99.90;;;;;;6295177;22;20017;-87
2023/11/24 09:15:42;;;;;;;9.57;1.80;;;6.30;99.90;;;;;;6291197;22;20009;-87
2023/11/24 09:18:09;;;;;;;8.43;1.02;;;6.30;99.90;;;;;;6290742;22;20020;-88
2023/11/24 09:20:35;;;;;;;6.28;1.20;;;6.30;99.90;;;;;;6289402;22;20005;-87
2023/11/24 09:23:01;;;;;;;3.13;0.75;;;6.20;99.90;;;;;;6291069;22;20001;-87
2023/11/24 09:25:26;;;;;;;2.58;0.70;;;6.10;99.90;;;;;;6290276;22;20047;-88
2023/11/24 09:27:52;;;;;;;6.53;0.90;;;6.10;99.90;;;;;;6290623;22;20265;-87
2023/11/24 09:30:18;;;;;;;4.55;1.30;;;6.10;99.90;;;;;;6290120;22;20100;-87
2023/11/24 09:32:45;;;;;;;5.28;1.00;;;6.20;99.90;;;;;;6289514;22;20005;-88
2023/11/24 09:35:11;;;;;;;7.13;1.40;;;6.40;99.90;;;;;;6290322;22;20097;-87
2023/11/24 09:37:38;;;;;;;3.95;0.93;;;6.50;99.90;;;;;;6290030;22;20009;-87
2023/11/24 09:40:09;;;;;;;5.30;1.08;;;6.60;99.90;;;;;;6288743;22;20031;-87
2023/11/24 09:42:42;;;;;;;10.48;1.30;;;6.80;99.90;;;;;;6290613;22;20028;-87
2023/11/24 09:45:15;;;;;;;4.90;1.00;;;6.80;99.90;;;;;;6289911;22;20096;-87
2023/11/24 09:48:01;;;;;;;5.77;1.37;;;6.90;99.90;;;;;;6289729;22;20008;-88
2023/11/24 09:50:27;;;;;;;2.17;0.90;;;7.10;99.90;;;;;;6289840;22;20008;-86
2023/11/24 09:53:01;;;;;;;6.68;1.40;;;7.00;99.90;;;;;;6289010;22;20021;-87
2023/11/24 09:55:30;;;;;;;3.03;0.68;;;6.90;99.90;;;;;;6289233;22;20027;-87
2023/11/24 09:57:56;;;;;;;2.35;1.00;;;6.90;99.90;;;;;;6290536;22;20005;-87
2023/11/24 10:00:23;;;;;;;2.53;0.77;;;7.00;99.90;;;;;;6289052;22;20445;-87
2023/11/24 10:02:52;;;;;;;8.55;1.20;;;7.10;99.90;;;;;;6290413;22;20006;-87
2023/11/24 10:05:21;;;;;;;8.45;2.35;;;7.10;99.90;;;;;;6290323;22;20069;-87
2023/11/24 10:07:50;;;;;;;6.88;1.23;;;7.10;99.90;;;;;;6289976;22;20008;-87
2023/11/24 10:10:23;;;;;;;9.02;1.20;;;7.20;99.90;;;;;;6289925;22;20012;-87
2023/11/24 10:12:52;;;;;;;3.13;1.20;;;7.30;99.90;;;;;;6290409;22;20048;-87
2023/11/24 10:15:20;;;;;;;5.30;1.27;;;7.20;99.90;;;;;;6289498;22;20350;-88
2023/11/24 10:17:48;;;;;;;4.43;0.73;;;7.10;99.90;;;;;;6289038;22;20001;-87
2023/11/24 10:20:18;;;;;;;5.60;1.10;;;7.00;99.90;;;;;;6289327;22;20340;-87
2023/11/24 10:22:49;;;;;;;4.43;1.27;;;6.80;99.90;;;;;;6289505;22;20043;-87
2023/11/24 10:25:23;;;;;;;3.15;0.77;;;6.70;99.90;;;;;;6289060;22;20012;-86
2023/11/24 10:27:57;;;;;;;7.15;1.13;;;6.50;99.90;;;;;;6289716;22;20013;-87
2023/11/24 10:30:23;;;;;;;5.70;0.77;;;6.50;99.90;;;;;;6289394;22;20009;-87
2023/11/24 10:32:49;;;;;;;5.18;0.80;;;6.30;99.90;;;;;;6289770;22;20044;-87
2023/11/24 10:35:14;;;;;;;3.45;1.00;;;6.30;99.90;;;;;;6289859;22;20013;-87
2023/11/24 10:37:40;;;;;;;1.45;0.70;;;6.20;99.90;;;;;;6289830;22;20012;-86
2023/11/24 10:40:11;;;;;;;3.00;0.65;;;6.00;99.90;;;;;;6289912;22;20001;-87
2023/11/24 10:42:40;;;;;;;2.40;0.40;;;5.80;99.90;;;;;;6290376;22;20058;-87
2023/11/24 10:45:10;;;;;;;3.80;0.80;;;5.70;99.90;;;;;;6289712;22;20638;-87
2023/11/24 10:47:48;;;;;;;6.15;1.08;;;5.80;99.90;;;;;;6289849;22;20001;-87
2023/11/24 10:50:16;;;;;;;3.67;0.68;;;5.60;99.90;;;;;;6290278;22;20062;-87
2023/11/24 10:52:49;;;;;;;1.02;0.55;;;5.60;99.90;;;;;;6289028;22;20010;-87
2023/11/24 10:55:15;;;;;;;6.78;0.65;;;5.50;99.90;;;;;;6289927;22;20016;-87
2023/11/24 10:57:43;;;;;;;5.57;1.08;;;5.50;99.90;;;;;;6289126;22;19997;-88
2023/11/24 11:00:09;;;;;;;1.70;0.85;;;5.60;99.90;;;;;;6292784;22;20012;-88
2023/11/24 11:02:40;;;;;;;0.93;0.40;;;5.90;99.90;;;;;;6309709;22;19993;-88
2023/11/24 11:05:25;;;;;;;1.25;0.55;;;6.00;99.90;;;;;;6293564;22;20005;-87
2023/11/24 11:08:18;;;;;;;2.15;0.50;;;6.10;99.90;;;;;;6292336;22;20009;-88
2023/11/24 11:11:12;;;;;;;4.28;0.65;;;6.10;99.90;;;;;;6291548;22;20031;-88
2023/11/24 11:13:41;;;;;;;1.88;0.68;;;6.00;99.90;;;;;;6236048;22;20009;-87
2023/11/24 11:16:10;;;;;;;2.25;1.00;;;6.10;99.90;;;;;;6291849;22;20034;-88
2023/11/24 11:18:36;;;;;;;5.05;0.90;;;6.20;99.90;;;;;;6291212;22;20009;-87
2023/11/24 11:21:32;;;;;;;5.05;1.13;;;6.20;99.90;;;;;;6277637;22;20024;-85
2023/11/24 11:24:03;;;;;;;6.90;0.90;;;6.20;99.90;;;;;;6239023;22;20001;-86
2023/11/24 11:26:48;;;;;;;2.28;0.85;;;6.30;99.90;;;;;;6261097;22;20123;-86
2023/11/24 11:29:18;;;;;;;2.95;0.98;;;6.30;99.90;;;;;;6260026;22;20059;-86
2023/11/24 11:31:46;;;;;;;5.13;1.25;;;6.30;99.90;;;;;;6259941;22;20010;-86
2023/11/24 11:34:14;;;;;;;2.08;1.38;;;6.40;99.90;;;;;;6261200;22;20037;-87
2023/11/24 11:37:04;;;;;;;5.28;0.80;;;6.40;99.90;;;;;;6260029;22;20005;-87
2023/11/24 11:39:35;;;;;;;4.68;1.08;;;6.50;99.90;;;;;;6258785;22;20044;-85
2023/11/24 11:42:01;;;;;;;3.10;0.90;;;6.40;99.90;;;;;;6260209;22;20009;-87
2023/11/24 11:44:34;;;;;;;7.35;1.58;;;6.30;99.90;;;;;;6260219;22;20062;-85
2023/11/24 11:47:20;;;;;;;6.05;1.02;;;6.30;99.90;;;;;;6260791;22;20009;-85
2023/11/24 11:49:51;;;;;;;3.38;1.20;;;6.30;99.90;;;;;;6274588;22;20025;-86
2023/11/24 11:52:27;;;;;;;4.53;0.80;;;6.20;99.90;;;;;;6261392;22;20012;-85
2023/11/24 11:54:55;;;;;;;5.32;0.95;;;6.30;99.90;;;;;;6261114;22;19998;-84
2023/11/24 11:57:22;;;;;;;4.70;0.80;;;6.30;99.90;;;;;;6260608;22;20010;-85
2023/11/24 11:59:48;;;;;;;5.85;0.95;;;6.30;99.90;;;;;;6260054;22;20017;-85
2023/11/24 12:02:16;;;;;;;5.10;1.20;;;6.30;99.90;;;;;;6261308;22;20094;-86
2023/11/24 12:04:47;;;;;;;3.40;1.48;;;6.30;99.90;;;;;;6260615;22;20435;-85
2023/11/24 12:07:34;;;;;;;7.18;1.27;;;6.40;99.90;;;;;;6260648;22;20005;-85
2023/11/24 12:10:29;;;;;;;5.15;0.90;;;6.40;99.90;;;;;;6252666;22;20437;-86
2023/11/24 12:13:08;;;;;;;;;;;;;;;;;;;;;
2023/11/24 12:15:51;;;;;;;5.75;1.58;;;6.10;99.90;;;;;;6156724;23;20036;-85
2023/11/24 12:25:16;;;;;;;3.22;1.15;;;6.00;99.90;;;;;;6319752;22;20088;-85
2023/11/24 12:27:59;;;;;;;4.28;1.02;;;6.00;99.90;;;;;;6298438;22;20019;-86
2023/11/24 12:31:07;;;;;;;6.57;1.17;;;6.00;99.90;;;;;;6303676;22;20012;-85
2023/11/24 12:34:15;;;;;;;1.23;0.55;;;6.00;99.90;;;;;;6189159;23;20061;-85
2023/11/24 12:36:41;;;;;;;7.03;0.82;;;6.20;99.90;;;;;;6215726;22;20027;-82
2023/11/24 12:39:42;;;;;;;3.22;0.65;;;6.10;99.90;;;;;;6285823;22;20011;-84
2023/11/24 12:42:18;;;;;;;1.48;0.60;;;6.20;99.90;;;;;;6283400;22;19995;-84
2023/11/24 12:44:55;;;;;;;4.47;0.70;;;6.30;99.90;;;;;;6284049;22;20500;-84
2023/11/24 12:47:44;;;;;;;0.70;0.57;;;6.10;99.90;;;;;;6284631;22;19999;-85
2023/11/24 12:50:28;;;;;;;3.35;1.20;;;5.90;99.90;;;;;;6284726;22;20444;-84
2023/11/24 12:53:00;;;;;;;3.47;0.90;;;5.60;99.90;;;;;;6284297;22;20026;-85
2023/11/24 12:55:40;;;;;;;4.15;0.60;;;5.50;99.90;;;;;;6308416;22;20067;-85
2023/11/24 12:58:50;;;;;;;;;;;;;;;;;;;;;
2023/11/24 13:04:52;;;;;;;1.50;0.45;;;5.40;99.90;;;;;;6287287;22;20008;-85
2023/11/24 13:07:23;;;;;;;2.92;0.25;;;5.40;99.90;;;;;;6254234;22;20511;-85
2023/11/24 13:10:37;;;;;;;;;;;;;;;;;;;;;
2023/11/24 13:16:21;;;;;;;2.03;1.27;;;5.60;99.90;;;;;;6302068;22;20029;-84
2023/11/24 13:19:01;;;;;;;2.30;0.60;;;5.60;99.90;;;;;;6284774;22;20004;-85
2023/11/24 13:21:55;;;;;;;;;;;;;;;;;;;;;
2023/11/24 13:25:05;;;;;;;3.33;0.85;;;5.80;99.90;;;;;;6324544;22;20007;-86
2023/11/24 13:28:00;;;;;;;4.70;0.90;;;5.90;99.90;;;;;;6242109;22;20072;-86
2023/11/24 13:31:40;;;;;;;;;;;;;;;;;;;;;
2023/11/24 13:37:47;;;;;;;6.07;1.02;;;6.20;99.90;;;;;;6126728;23;20097;-85
2023/11/24 13:48:01;;;;;;;;;;;;;;;;;;;;;
2023/11/24 13:50:42;;;;;;;10.57;1.95;;;6.10;99.90;;;;;;6185755;23;20029;-84
2023/11/24 13:53:13;;;;;;;7.50;1.58;;;6.20;99.90;;;;;;6289605;22;20472;-84
2023/11/24 13:55:43;;;;;;;14.90;2.20;;;6.20;99.90;;;;;;6289378;22;20012;-84
2023/11/24 13:58:16;;;;;;;11.73;2.60;;;6.20;99.90;;;;;;6289536;22;20002;-84
2023/11/24 14:00:51;;;;;;;5.73;1.20;;;6.20;99.90;;;;;;6289749;22;20094;-85
2023/11/24 14:03:35;;;;;;;7.25;1.33;;;6.10;99.90;;;;;;6288872;22;20296;-85
2023/11/24 14:06:08;;;;;;;;;;;6.10;99.90;;;;;;6290497;22;20001;-84
2023/11/24 14:08:49;;;;;;;8.87;1.50;;;6.00;99.90;;;;;;6290523;22;19985;-85
2023/11/24 14:11:18;;;;;;;12.30;1.42;;;6.00;99.90;;;;;;6292390;22;20013;-84
2023/11/24 14:13:45;;;;;;;8.15;1.33;;;5.90;99.90;;;;;;6305640;22;20029;-82
2023/11/24 14:16:13;;;;;;;4.28;1.02;;;5.90;99.90;;;;;;6305600;22;20021;-85
2023/11/24 14:18:42;;;;;;;8.65;1.60;;;5.90;99.90;;;;;;6293023;22;20430;-84
2023/11/24 14:21:08;;;;;;;5.95;1.60;;;5.90;99.90;;;;;;6193396;23;20001;-83
2023/11/24 14:23:33;;;;;;;11.38;1.50;;;6.00;99.90;;;;;;6292726;22;20116;-84
2023/11/24 14:25:59;;;;;;;12.23;1.48;;;6.20;99.90;;;;;;6291717;22;20005;-84
2023/11/24 14:28:25;;;;;;;12.43;1.58;;;6.30;99.90;;;;;;6292868;22;20005;-85
2023/11/24 14:30:51;;;;;;;6.70;1.25;;;6.30;99.90;;;;;;6291122;22;20005;-84
2023/11/24 14:33:17;;;;;;;11.00;1.77;;;6.20;99.90;;;;;;6291916;22;20078;-83
2023/11/24 14:35:45;;;;;;;5.28;1.83;;;6.20;99.90;;;;;;6292312;22;20388;-84
2023/11/24 14:38:11;;;;;;;6.90;1.23;;;6.20;99.90;;;;;;6292985;22;20025;-83
2023/11/24 14:40:39;;;;;;;11.07;1.42;;;6.00;99.90;;;;;;6293236;22;20058;-84
2023/11/24 14:43:05;;;;;;;8.57;1.63;;;6.00;99.90;;;;;;6294457;22;20017;-83
2023/11/24 14:45:30;;;;;;;13.80;1.95;;;5.90;99.90;;;;;;6293999;22;20096;-84
2023/11/24 14:47:56;;;;;;;8.55;1.33;;;5.80;99.90;;;;;;6291339;22;20060;-84
2023/11/24 14:50:26;;;;;;;10.60;1.67;;;5.70;99.90;;;;;;6263824;22;20021;-85
2023/11/24 14:52:52;;;;;;;13.10;2.22;;;5.60;99.90;;;;;;6288738;22;20001;-85
2023/11/24 14:55:21;;;;;;;9.65;1.48;;;5.50;99.90;;;;;;6290589;22;20001;-86
2023/11/24 14:57:48;;;;;;;7.68;0.98;;;5.30;99.90;;;;;;6291278;22;20036;-84
2023/11/24 15:00:29;;;;;;;4.20;1.00;;;5.00;99.90;;;;;;6293770;22;20032;-83
2023/11/24 15:02:56;;;;;;;6.40;0.80;;;5.00;99.90;;;;;;6292409;22;20011;-85
2023/11/24 15:05:23;;;;;;;8.43;1.20;;;4.90;99.90;;;;;;6293561;22;20007;-84
2023/11/24 15:07:51;;;;;;;7.28;1.08;;;4.70;99.90;;;;;;6292795;22;20005;-84
2023/11/24 15:10:17;;;;;;;5.18;1.35;;;4.50;99.90;;;;;;6293185;22;20008;-85
2023/11/24 15:12:44;;;;;;;13.98;2.03;;;4.40;99.90;;;;;;6291691;22;20005;-83
2023/11/24 15:15:12;;;;;;;10.35;1.20;;;4.40;99.90;;;;;;6288456;22;20050;-84
2023/11/24 15:17:37;;;;;;;2.90;1.10;;;4.30;99.90;;;;;;6289620;22;20005;-84
2023/11/24 15:20:11;;;;;;;2.92;0.90;;;4.20;99.90;;;;;;6291261;22;20058;-84
2023/11/24 15:22:37;;;;;;;;;;;4.10;99.90;;;;;;6289420;22;20009;-86
2023/11/24 15:25:03;;;;;;;4.72;1.60;;;3.90;99.90;;;;;;6288905;22;19904;-86
2023/11/24 15:27:30;;;;;;;5.78;2.42;;;3.80;99.90;;;;;;6290729;22;20001;-85
2023/11/24 15:29:56;;;;;;;8.95;2.22;;;3.60;99.90;;;;;;6289594;22;20005;-85